Time;durP1;ratioP1;P1;durP2;ratioP2;P2;SDS_P1;SDS_P2;PMS_P1;PMS_P2;Temp;Humidity;BMP_temperature;BMP_pressure;BME280_temperature;BME280_humidity;BME280_pressure;Samples;Min_cycle;Max_cycle;Signal;HPM_P1;HPM_P2
2022/02/14 00:01:27;;;;;;;1.83;0.93;;;;;;;;;;5042125;28;20032;-67
2022/02/14 00:03:53;;;;;;;2.97;1.17;;;;;;;;;;5050248;28;20028;-67
2022/02/14 00:06:18;;;;;;;4.03;1.58;;;;;;;;;;5034326;28;20021;-67
2022/02/14 00:08:44;;;;;;;2.97;0.88;;;;;;;;;;5030925;28;20108;-66
2022/02/14 00:11:10;;;;;;;4.53;1.17;;;;;;;;;;5035000;28;20470;-66
2022/02/14 00:13:35;;;;;;;1.77;1.10;;;;;;;;;;5034959;28;20021;-66
2022/02/14 00:16:00;;;;;;;2.78;0.95;;;;;;;;;;5036134;28;20068;-67
2022/02/14 00:18:25;;;;;;;2.03;0.75;;;;;;;;;;5024578;28;20021;-65
2022/02/14 00:20:50;;;;;;;2.65;1.05;;;;;;;;;;5034804;28;20029;-66
2022/02/14 00:23:16;;;;;;;3.13;1.10;;;;;;;;;;5039737;28;20018;-66
2022/02/14 00:25:41;;;;;;;2.53;1.23;;;;;;;;;;5035602;28;20029;-65
2022/02/14 00:28:06;;;;;;;2.42;1.08;;;;;;;;;;5034715;28;20144;-66
2022/02/14 00:30:31;;;;;;;2.30;1.23;;;;;;;;;;5037688;28;20040;-66
2022/02/14 00:32:57;;;;;;;1.75;0.80;;;;;;;;;;5035161;28;20071;-66
2022/02/14 00:35:22;;;;;;;3.03;1.20;;;;;;;;;;5035089;28;20025;-66
2022/02/14 00:37:48;;;;;;;1.83;0.70;;;;;;;;;;5054436;28;20040;-66
2022/02/14 00:40:13;;;;;;;2.25;0.80;;;;;;;;;;5035965;28;20029;-66
2022/02/14 00:42:38;;;;;;;1.65;1.00;;;;;;;;;;5034141;28;20017;-66
2022/02/14 00:45:04;;;;;;;3.65;0.88;;;;;;;;;;5034897;28;20018;-66
2022/02/14 00:47:29;;;;;;;1.65;0.68;;;;;;;;;;5033572;28;20501;-66
2022/02/14 00:49:57;;;;;;;2.22;1.00;;;;;;;;;;5032388;28;20024;-66
2022/02/14 00:52:22;;;;;;;2.80;0.63;;;;;;;;;;5032773;28;20033;-66
2022/02/14 00:54:47;;;;;;;3.83;1.30;;;;;;;;;;5024416;28;20336;-66
2022/02/14 00:57:12;;;;;;;2.65;0.70;;;;;;;;;;5051279;28;20105;-65
2022/02/14 00:59:37;;;;;;;2.25;1.00;;;;;;;;;;5032781;28;20025;-65
2022/02/14 01:02:03;;;;;;;3.05;0.80;;;;;;;;;;5034117;28;20021;-66
2022/02/14 01:04:28;;;;;;;1.55;0.52;;;;;;;;;;5034676;28;20075;-66
2022/02/14 01:06:54;;;;;;;1.95;0.70;;;;;;;;;;5034538;28;20056;-66
2022/02/14 01:09:19;;;;;;;2.78;0.80;;;;;;;;;;5030602;28;20117;-66
2022/02/14 01:11:44;;;;;;;2.00;0.60;;;;;;;;;;5033566;28;20038;-65
2022/02/14 01:14:09;;;;;;;2.28;0.70;;;;;;;;;;5033923;28;20386;-65
2022/02/14 01:16:35;;;;;;;2.40;1.05;;;;;;;;;;5032755;28;20087;-65
2022/02/14 01:19:00;;;;;;;1.27;0.50;;;;;;;;;;5037821;28;20041;-66
2022/02/14 01:21:25;;;;;;;2.33;0.82;;;;;;;;;;5027257;28;20596;-66
2022/02/14 01:23:50;;;;;;;2.53;0.75;;;;;;;;;;5029357;28;20033;-66
2022/02/14 01:26:16;;;;;;;1.77;0.77;;;;;;;;;;5034055;28;20523;-67
2022/02/14 01:28:41;;;;;;;2.00;0.73;;;;;;;;;;5033515;28;20025;-66
2022/02/14 01:31:06;;;;;;;2.53;0.60;;;;;;;;;;5034004;28;20098;-67
2022/02/14 01:33:31;;;;;;;1.75;0.80;;;;;;;;;;5033666;28;20035;-67
2022/02/14 01:35:56;;;;;;;2.00;0.63;;;;;;;;;;5032949;28;20033;-67
2022/02/14 01:38:22;;;;;;;1.05;0.60;;;;;;;;;;5032738;28;20025;-67
2022/02/14 01:40:47;;;;;;;1.15;0.63;;;;;;;;;;5015112;28;20053;-67
2022/02/14 01:43:15;;;;;;;2.13;0.63;;;;;;;;;;5024385;28;20047;-67
2022/02/14 01:45:41;;;;;;;1.50;0.50;;;;;;;;;;5032287;28;20025;-67
2022/02/14 01:48:06;;;;;;;5.82;1.02;;;;;;;;;;5033840;28;20035;-67
2022/02/14 01:50:31;;;;;;;2.95;0.73;;;;;;;;;;5033084;28;20029;-67
2022/02/14 01:52:56;;;;;;;2.30;0.80;;;;;;;;;;5031749;28;20043;-67
2022/02/14 01:55:21;;;;;;;2.50;0.70;;;;;;;;;;5037891;28;20524;-67
2022/02/14 01:57:48;;;;;;;1.17;0.40;;;;;;;;;;5049594;28;20071;-67
2022/02/14 02:00:14;;;;;;;1.98;0.80;;;;;;;;;;5047715;28;20500;-67
2022/02/14 02:02:40;;;;;;;5.03;0.47;;;;;;;;;;5014453;28;20037;-67
2022/02/14 02:05:06;;;;;;;1.40;0.63;;;;;;;;;;5032860;28;20025;-67
2022/02/14 02:07:31;;;;;;;1.45;0.60;;;;;;;;;;5033233;28;20029;-67
2022/02/14 02:09:57;;;;;;;2.15;0.95;;;;;;;;;;5032870;28;20021;-67
2022/02/14 02:12:26;;;;;;;0.77;0.40;;;;;;;;;;5031513;28;20026;-67
2022/02/14 02:14:55;;;;;;;1.90;0.40;;;;;;;;;;5032347;28;20025;-67
2022/02/14 02:17:26;;;;;;;1.35;0.40;;;;;;;;;;5033094;28;20034;-67
2022/02/14 02:19:52;;;;;;;0.88;0.38;;;;;;;;;;5032511;28;20021;-67
2022/02/14 02:22:17;;;;;;;0.95;0.45;;;;;;;;;;5035658;28;20071;-67
2022/02/14 02:24:49;;;;;;;1.35;0.40;;;;;;;;;;5040555;28;20391;-67
2022/02/14 02:27:15;;;;;;;1.92;0.38;;;;;;;;;;5042114;28;20033;-67
2022/02/14 02:29:40;;;;;;;1.55;0.38;;;;;;;;;;5045028;28;20030;-67
2022/02/14 02:32:06;;;;;;;2.17;0.40;;;;;;;;;;5048256;28;20139;-67
2022/02/14 02:34:31;;;;;;;1.95;0.65;;;;;;;;;;5046587;28;20083;-67
2022/02/14 02:36:58;;;;;;;2.17;0.30;;;;;;;;;;5028028;28;20025;-68
2022/02/14 02:39:23;;;;;;;0.52;0.30;;;;;;;;;;5028693;28;20017;-68
2022/02/14 02:41:49;;;;;;;1.42;0.40;;;;;;;;;;5045260;28;20530;-68
2022/02/14 02:44:14;;;;;;;2.38;0.55;;;;;;;;;;5032216;28;20017;-68
2022/02/14 02:46:40;;;;;;;2.90;0.40;;;;;;;;;;5029627;28;20026;-67
2022/02/14 02:49:13;;;;;;;2.15;0.40;;;;;;;;;;5030964;28;20506;-67
2022/02/14 02:51:39;;;;;;;1.65;0.30;;;;;;;;;;5029190;28;20025;-68
2022/02/14 02:54:05;;;;;;;1.05;0.32;;;;;;;;;;5032858;28;20111;-67
2022/02/14 02:56:30;;;;;;;1.58;0.73;;;;;;;;;;5027630;28;20120;-67
2022/02/14 02:58:55;;;;;;;1.77;0.60;;;;;;;;;;5031565;28;20041;-67
2022/02/14 03:01:20;;;;;;;2.40;0.40;;;;;;;;;;5032172;28;20053;-68
2022/02/14 03:03:47;;;;;;;2.55;0.50;;;;;;;;;;5031013;28;20037;-67
2022/02/14 03:06:12;;;;;;;3.35;0.60;;;;;;;;;;5031398;28;20022;-67
2022/02/14 03:08:37;;;;;;;0.77;0.30;;;;;;;;;;5031156;28;20033;-67
2022/02/14 03:11:02;;;;;;;1.48;0.40;;;;;;;;;;5032430;28;20480;-67
2022/02/14 03:13:28;;;;;;;2.60;0.50;;;;;;;;;;5030332;28;20073;-67
2022/02/14 03:15:53;;;;;;;2.13;0.40;;;;;;;;;;5030910;28;20034;-67
2022/02/14 03:18:18;;;;;;;1.02;0.40;;;;;;;;;;5031940;28;20021;-67
2022/02/14 03:20:43;;;;;;;1.98;0.73;;;;;;;;;;5031987;28;20509;-68
2022/02/14 03:23:08;;;;;;;1.83;0.38;;;;;;;;;;5037907;28;20029;-66
2022/02/14 03:25:34;;;;;;;2.22;0.63;;;;;;;;;;5034514;28;20032;-66
2022/02/14 03:27:59;;;;;;;2.65;0.47;;;;;;;;;;5033162;28;20021;-68
2022/02/14 03:30:24;;;;;;;1.33;0.38;;;;;;;;;;5034338;28;20020;-66
2022/02/14 03:32:49;;;;;;;1.77;0.50;;;;;;;;;;5044454;28;20037;-66
2022/02/14 03:35:14;;;;;;;1.60;0.50;;;;;;;;;;5030576;28;20029;-66
2022/02/14 03:37:40;;;;;;;1.85;0.32;;;;;;;;;;5031861;28;20037;-66
2022/02/14 03:40:05;;;;;;;1.85;0.40;;;;;;;;;;5029983;28;20124;-66
2022/02/14 03:42:30;;;;;;;2.85;0.40;;;;;;;;;;5031151;28;20082;-66
2022/02/14 03:44:56;;;;;;;2.50;0.80;;;;;;;;;;5033293;28;20045;-66
2022/02/14 03:47:21;;;;;;;1.17;0.28;;;;;;;;;;5029689;28;20026;-66
2022/02/14 03:49:46;;;;;;;0.82;0.30;;;;;;;;;;5035265;28;20026;-66
2022/02/14 03:52:11;;;;;;;1.75;0.73;;;;;;;;;;5032512;28;20056;-65
2022/02/14 03:54:36;;;;;;;1.20;0.30;;;;;;;;;;5035048;28;20087;-65
2022/02/14 03:57:02;;;;;;;2.53;0.57;;;;;;;;;;5035169;28;20556;-66
2022/02/14 03:59:27;;;;;;;0.60;0.38;;;;;;;;;;5035680;28;20121;-66
2022/02/14 04:01:52;;;;;;;2.00;0.45;;;;;;;;;;5035264;28;20036;-66
2022/02/14 04:04:17;;;;;;;1.92;0.47;;;;;;;;;;5035321;28;20389;-66
2022/02/14 04:06:42;;;;;;;2.55;0.50;;;;;;;;;;5036169;28;20497;-66
2022/02/14 04:09:08;;;;;;;2.25;0.50;;;;;;;;;;5035474;28;20009;-66
2022/02/14 04:11:33;;;;;;;1.27;0.50;;;;;;;;;;5034926;28;20025;-66
2022/02/14 04:13:58;;;;;;;0.77;0.40;;;;;;;;;;5035279;28;20123;-66
2022/02/14 04:16:23;;;;;;;1.15;0.50;;;;;;;;;;5034824;28;20033;-66
2022/02/14 04:18:48;;;;;;;2.03;0.47;;;;;;;;;;5017066;28;20041;-66
2022/02/14 04:21:14;;;;;;;1.90;0.43;;;;;;;;;;5034089;28;20021;-66
2022/02/14 04:23:39;;;;;;;1.02;0.57;;;;;;;;;;5032185;28;20032;-66
2022/02/14 04:26:04;;;;;;;1.00;0.60;;;;;;;;;;5039333;28;20042;-66
2022/02/14 04:28:29;;;;;;;1.85;0.50;;;;;;;;;;5046885;28;20139;-66
2022/02/14 04:30:55;;;;;;;1.92;0.40;;;;;;;;;;5045938;28;20351;-66
2022/02/14 04:33:20;;;;;;;0.98;0.35;;;;;;;;;;5033622;28;20385;-66
2022/02/14 04:35:45;;;;;;;1.10;0.40;;;;;;;;;;5035397;28;20026;-66
2022/02/14 04:38:10;;;;;;;2.40;0.50;;;;;;;;;;5035832;28;20029;-66
2022/02/14 04:40:37;;;;;;;1.30;0.50;;;;;;;;;;5031991;28;20040;-66
2022/02/14 04:43:02;;;;;;;1.38;0.60;;;;;;;;;;5033994;28;20128;-66
2022/02/14 04:45:28;;;;;;;1.58;0.50;;;;;;;;;;5035121;28;20096;-66
2022/02/14 04:47:54;;;;;;;1.95;0.40;;;;;;;;;;5036488;28;20018;-66
2022/02/14 04:50:20;;;;;;;2.35;0.35;;;;;;;;;;5045479;28;20454;-66
2022/02/14 04:52:45;;;;;;;2.90;0.52;;;;;;;;;;5029482;28;20100;-66
2022/02/14 04:55:10;;;;;;;1.45;0.73;;;;;;;;;;5033918;28;20049;-67
2022/02/14 04:57:36;;;;;;;1.15;0.60;;;;;;;;;;5034069;28;20032;-67
2022/02/14 05:00:06;;;;;;;0.98;0.35;;;;;;;;;;5034770;28;20021;-67
2022/02/14 05:02:31;;;;;;;1.63;0.45;;;;;;;;;;5020724;28;20036;-67
2022/02/14 05:04:56;;;;;;;2.97;0.40;;;;;;;;;;5034625;28;20033;-67
2022/02/14 05:07:21;;;;;;;0.65;0.32;;;;;;;;;;5016907;28;20049;-68
2022/02/14 05:09:47;;;;;;;2.30;0.60;;;;;;;;;;5035950;28;20116;-67
2022/02/14 05:12:12;;;;;;;1.95;0.52;;;;;;;;;;5032872;28;20544;-67
2022/02/14 05:14:37;;;;;;;1.67;0.30;;;;;;;;;;5033571;28;20034;-67
2022/02/14 05:17:02;;;;;;;1.17;0.45;;;;;;;;;;5032916;28;20518;-67
2022/02/14 05:19:28;;;;;;;1.58;0.40;;;;;;;;;;5034888;28;20060;-67
2022/02/14 05:21:53;;;;;;;1.25;0.40;;;;;;;;;;5046332;28;20375;-67
2022/02/14 05:24:18;;;;;;;1.35;0.40;;;;;;;;;;5032689;28;20456;-67
2022/02/14 05:26:43;;;;;;;1.98;0.52;;;;;;;;;;5029295;28;20049;-67
2022/02/14 05:29:08;;;;;;;1.38;0.40;;;;;;;;;;5032497;28;20056;-67
2022/02/14 05:31:34;;;;;;;1.10;0.40;;;;;;;;;;5033069;28;20030;-67
2022/02/14 05:33:59;;;;;;;2.33;0.52;;;;;;;;;;5033853;28;20037;-67
2022/02/14 05:36:25;;;;;;;3.38;0.30;;;;;;;;;;5033254;28;20517;-67
2022/02/14 05:38:50;;;;;;;1.75;0.65;;;;;;;;;;5031814;28;20017;-67
2022/02/14 05:41:15;;;;;;;1.75;0.57;;;;;;;;;;5032934;28;20380;-67
2022/02/14 05:43:41;;;;;;;2.25;0.45;;;;;;;;;;5053183;28;20025;-68
2022/02/14 05:46:13;;;;;;;0.85;0.30;;;;;;;;;;5036939;28;20017;-67
2022/02/14 05:48:38;;;;;;;1.92;0.93;;;;;;;;;;5033032;28;20025;-67
2022/02/14 05:51:03;;;;;;;3.38;0.57;;;;;;;;;;5033975;28;20026;-67
2022/02/14 05:53:29;;;;;;;0.85;0.30;;;;;;;;;;5034739;28;20359;-67
2022/02/14 05:55:54;;;;;;;2.90;1.30;;;;;;;;;;5044963;28;20103;-66
2022/02/14 05:58:20;;;;;;;1.73;0.40;;;;;;;;;;5046951;28;20025;-66
2022/02/14 06:00:45;;;;;;;2.28;0.50;;;;;;;;;;5039992;28;20104;-66
2022/02/14 06:03:10;;;;;;;2.65;0.50;;;;;;;;;;5029651;28;20028;-65
2022/02/14 06:05:35;;;;;;;1.77;0.45;;;;;;;;;;5033446;28;20492;-65
2022/02/14 06:08:00;;;;;;;2.55;0.73;;;;;;;;;;5030927;28;20481;-66
2022/02/14 06:10:26;;;;;;;1.58;0.70;;;;;;;;;;5023410;28;20037;-66
2022/02/14 06:12:52;;;;;;;4.38;0.73;;;;;;;;;;5032803;28;20021;-66
2022/02/14 06:15:17;;;;;;;4.25;0.90;;;;;;;;;;5032918;28;20488;-66
2022/02/14 06:17:43;;;;;;;2.10;0.82;;;;;;;;;;5031169;28;20132;-66
2022/02/14 06:20:08;;;;;;;3.88;0.93;;;;;;;;;;5032045;28;20040;-66
2022/02/14 06:22:33;;;;;;;1.67;1.17;;;;;;;;;;5030910;28;20038;-66
2022/02/14 06:24:59;;;;;;;1.95;0.90;;;;;;;;;;5055132;28;20491;-67
2022/02/14 06:27:24;;;;;;;4.30;1.50;;;;;;;;;;5039338;28;20017;-67
2022/02/14 06:29:49;;;;;;;2.13;1.08;;;;;;;;;;5032709;28;20025;-66
2022/02/14 06:32:14;;;;;;;5.28;1.33;;;;;;;;;;5015760;28;20375;-66
2022/02/14 06:34:40;;;;;;;1.95;1.10;;;;;;;;;;5020043;28;20029;-67
2022/02/14 06:37:05;;;;;;;3.63;1.23;;;;;;;;;;5012850;28;20041;-67
2022/02/14 06:39:30;;;;;;;3.15;1.33;;;;;;;;;;5036978;28;20108;-67
2022/02/14 06:41:58;;;;;;;2.90;1.35;;;;;;;;;;5051038;28;20043;-66
2022/02/14 06:44:23;;;;;;;3.95;1.50;;;;;;;;;;5052640;28;20083;-67
2022/02/14 06:46:49;;;;;;;3.95;1.25;;;;;;;;;;5047377;28;20497;-67
2022/02/14 06:49:14;;;;;;;2.78;1.05;;;;;;;;;;5031569;28;20434;-67
2022/02/14 06:51:39;;;;;;;5.03;1.35;;;;;;;;;;5027530;28;20121;-66
2022/02/14 06:54:05;;;;;;;4.85;1.40;;;;;;;;;;5032189;28;20033;-66
2022/02/14 06:56:30;;;;;;;2.80;1.45;;;;;;;;;;5032548;28;20112;-67
2022/02/14 06:58:55;;;;;;;6.38;1.73;;;;;;;;;;5030251;28;20025;-66
2022/02/14 07:01:20;;;;;;;4.23;1.80;;;;;;;;;;5029084;28;20371;-66
2022/02/14 07:03:45;;;;;;;2.20;1.23;;;;;;;;;;5052957;28;20026;-66
2022/02/14 07:06:10;;;;;;;3.58;1.70;;;;;;;;;;5039782;28;20060;-67
2022/02/14 07:08:36;;;;;;;5.45;1.73;;;;;;;;;;5031020;28;20060;-67
2022/02/14 07:11:02;;;;;;;3.93;1.60;;;;;;;;;;5058920;28;20386;-66
2022/02/14 07:13:27;;;;;;;4.75;1.52;;;;;;;;;;5024530;28;20497;-66
2022/02/14 07:15:52;;;;;;;4.65;1.45;;;;;;;;;;5030285;28;20386;-67
2022/02/14 07:18:17;;;;;;;3.83;1.65;;;;;;;;;;5022432;28;20029;-67
2022/02/14 07:20:43;;;;;;;4.55;1.55;;;;;;;;;;5027904;28;20037;-67
2022/02/14 07:23:09;;;;;;;4.32;1.67;;;;;;;;;;5014530;28;20041;-67
2022/02/14 07:25:34;;;;;;;4.13;1.67;;;;;;;;;;5016668;28;20117;-67
2022/02/14 07:27:59;;;;;;;3.65;1.30;;;;;;;;;;5034325;28;20477;-66
2022/02/14 07:30:24;;;;;;;3.63;1.70;;;;;;;;;;5039942;28;20037;-67
2022/02/14 07:32:50;;;;;;;3.40;1.63;;;;;;;;;;5030661;28;20032;-67
2022/02/14 07:35:15;;;;;;;3.22;1.33;;;;;;;;;;5031857;28;20021;-67
2022/02/14 07:37:42;;;;;;;4.75;1.50;;;;;;;;;;5030475;28;20040;-66
2022/02/14 07:40:08;;;;;;;2.08;1.10;;;;;;;;;;5020957;28;20014;-66
2022/02/14 07:42:34;;;;;;;3.08;1.23;;;;;;;;;;5029692;28;20506;-67
2022/02/14 07:44:59;;;;;;;3.60;1.08;;;;;;;;;;5031646;28;20067;-67
2022/02/14 07:47:24;;;;;;;1.23;0.90;;;;;;;;;;5031400;28;20022;-67
2022/02/14 07:49:50;;;;;;;3.30;0.90;;;;;;;;;;5030767;28;20394;-67
2022/02/14 07:52:15;;;;;;;2.50;0.77;;;;;;;;;;5025257;28;20434;-67
2022/02/14 07:54:41;;;;;;;1.58;0.30;;;;;;;;;;5030218;28;20048;-66
2022/02/14 07:57:06;;;;;;;1.25;0.50;;;;;;;;;;5030886;28;20041;-66
2022/02/14 07:59:31;;;;;;;1.23;0.57;;;;;;;;;;5025324;28;20028;-66
2022/02/14 08:01:56;;;;;;;1.27;0.30;;;;;;;;;;5026196;28;20032;-65
2022/02/14 08:04:22;;;;;;;0.68;0.40;;;;;;;;;;5031652;28;20458;-66
2022/02/14 08:06:47;;;;;;;1.05;0.40;;;;;;;;;;5030362;28;20018;-66
2022/02/14 08:09:12;;;;;;;1.23;0.57;;;;;;;;;;5026379;28;20382;-66
2022/02/14 08:11:37;;;;;;;0.88;0.40;;;;;;;;;;5040727;28;20032;-66
2022/02/14 08:14:03;;;;;;;2.33;0.50;;;;;;;;;;5031271;28;20018;-65
2022/02/14 08:16:30;;;;;;;3.42;0.38;;;;;;;;;;5029458;28;20025;-66
2022/02/14 08:18:56;;;;;;;2.15;0.40;;;;;;;;;;5031401;28;20116;-66
2022/02/14 08:21:23;;;;;;;2.30;0.38;;;;;;;;;;5026000;28;20109;-66
2022/02/14 08:23:48;;;;;;;0.80;0.65;;;;;;;;;;5014455;28;20430;-65
2022/02/14 08:26:13;;;;;;;1.88;0.35;;;;;;;;;;5020794;28;20034;-66
2022/02/14 08:28:38;;;;;;;2.60;0.50;;;;;;;;;;5026801;28;20021;-66
2022/02/14 08:31:04;;;;;;;1.27;0.50;;;;;;;;;;5035264;28;20037;-66
2022/02/14 08:33:30;;;;;;;0.75;0.30;;;;;;;;;;5047367;28;20025;-66
2022/02/14 08:35:56;;;;;;;1.58;0.60;;;;;;;;;;5034861;28;20539;-66
2022/02/14 08:38:22;;;;;;;1.77;0.50;;;;;;;;;;5034947;28;20116;-66
2022/02/14 08:40:47;;;;;;;1.55;0.45;;;;;;;;;;5046235;28;20044;-67
2022/02/14 08:43:12;;;;;;;3.95;0.40;;;;;;;;;;5050525;28;20405;-67
2022/02/14 08:45:37;;;;;;;2.13;0.40;;;;;;;;;;5017944;28;20053;-66
2022/02/14 08:48:03;;;;;;;0.82;0.30;;;;;;;;;;5014982;28;20105;-66
2022/02/14 08:50:29;;;;;;;0.70;0.30;;;;;;;;;;5022503;28;20080;-66
2022/02/14 08:52:54;;;;;;;1.95;0.50;;;;;;;;;;5012025;28;20247;-66
2022/02/14 08:55:20;;;;;;;1.58;0.38;;;;;;;;;;5028699;28;20582;-66
2022/02/14 08:57:45;;;;;;;1.42;0.40;;;;;;;;;;5028264;28;20113;-65
2022/02/14 09:00:11;;;;;;;1.40;0.28;;;;;;;;;;5030909;28;20013;-66
2022/02/14 09:02:36;;;;;;;0.60;0.28;;;;;;;;;;5028321;28;20072;-66
2022/02/14 09:05:02;;;;;;;1.40;0.35;;;;;;;;;;5023985;28;20433;-65
2022/02/14 09:07:27;;;;;;;0.82;0.40;;;;;;;;;;5029628;28;20440;-66
2022/02/14 09:09:52;;;;;;;0.70;0.28;;;;;;;;;;5047170;28;20120;-65
2022/02/14 09:12:18;;;;;;;2.03;0.20;;;;;;;;;;5036230;28;20052;-65
2022/02/14 09:14:44;;;;;;;0.40;0.20;;;;;;;;;;5031819;28;20028;-65
2022/02/14 09:17:09;;;;;;;2.50;0.40;;;;;;;;;;5041534;28;20028;-65
2022/02/14 09:19:34;;;;;;;1.58;0.25;;;;;;;;;;5027351;28;20060;-67
2022/02/14 09:22:00;;;;;;;1.17;0.30;;;;;;;;;;5031155;28;20025;-67
2022/02/14 09:24:25;;;;;;;1.60;0.20;;;;;;;;;;5039884;28;20074;-67
2022/02/14 09:26:50;;;;;;;1.55;0.22;;;;;;;;;;5048096;28;20085;-67
2022/02/14 09:29:16;;;;;;;0.75;0.43;;;;;;;;;;5038604;28;20021;-67
2022/02/14 09:31:41;;;;;;;1.60;0.20;;;;;;;;;;5031702;28;20455;-67
2022/02/14 09:34:07;;;;;;;0.85;0.50;;;;;;;;;;5026396;28;20025;-67
2022/02/14 09:36:33;;;;;;;2.47;0.30;;;;;;;;;;5031525;28;20029;-67
2022/02/14 09:38:58;;;;;;;1.80;0.20;;;;;;;;;;5032826;28;20451;-66
2022/02/14 09:41:24;;;;;;;2.50;0.30;;;;;;;;;;5033445;28;20188;-66
2022/02/14 09:43:50;;;;;;;1.10;0.30;;;;;;;;;;5032389;28;20076;-66
2022/02/14 09:46:15;;;;;;;2.08;0.30;;;;;;;;;;5051885;28;20052;-65
2022/02/14 09:48:41;;;;;;;0.50;0.20;;;;;;;;;;5032363;28;20026;-71
2022/02/14 09:51:07;;;;;;;1.85;0.30;;;;;;;;;;5027895;28;20029;-66
2022/02/14 09:53:32;;;;;;;1.08;0.30;;;;;;;;;;5029409;28;20024;-72
2022/02/14 09:55:58;;;;;;;1.65;0.30;;;;;;;;;;5030302;28;20058;-66
2022/02/14 09:58:23;;;;;;;0.93;0.50;;;;;;;;;;5022711;28;20429;-66
2022/02/14 10:00:49;;;;;;;1.35;0.40;;;;;;;;;;5026179;28;20489;-66
2022/02/14 10:03:16;;;;;;;0.90;0.28;;;;;;;;;;5020003;28;20061;-66
2022/02/14 10:05:46;;;;;;;1.35;0.30;;;;;;;;;;5040928;28;20017;-66
2022/02/14 10:08:24;;;;;;;1.77;0.30;;;;;;;;;;5033127;28;20128;-67
2022/02/14 10:10:50;;;;;;;1.65;0.30;;;;;;;;;;5037366;28;20017;-66
2022/02/14 10:13:34;;;;;;;2.38;0.30;;;;;;;;;;5047146;28;20420;-66
2022/02/14 10:16:00;;;;;;;0.90;0.32;;;;;;;;;;5047338;28;20479;-67
2022/02/14 10:18:29;;;;;;;0.52;0.30;;;;;;;;;;5039401;28;20025;-67
2022/02/14 10:21:14;;;;;;;1.38;0.20;;;;;;;;;;5032415;28;20038;-66
2022/02/14 10:24:00;;;;;;;0.70;0.20;;;;;;;;;;5024067;28;20116;-66
2022/02/14 10:26:47;;;;;;;1.23;0.47;;;;;;;;;;5020311;28;20032;-65
2022/02/14 10:29:31;;;;;;;0.55;0.28;;;;;;;;;;5032046;28;20029;-66
2022/02/14 10:32:00;;;;;;;1.23;0.40;;;;;;;;;;5034019;28;20025;-65
2022/02/14 10:34:37;;;;;;;0.90;0.30;;;;;;;;;;5047844;28;20057;-66
2022/02/14 10:37:03;;;;;;;1.15;0.40;;;;;;;;;;5035610;28;21419;-67
2022/02/14 10:39:28;;;;;;;3.00;0.50;;;;;;;;;;5025771;28;20386;-66
2022/02/14 10:42:10;;;;;;;0.90;0.47;;;;;;;;;;5021206;28;20034;-66
2022/02/14 10:47:25;;;;;;;0.82;0.45;;;;;;;;;;5038244;28;20060;-67
2022/02/14 10:49:56;;;;;;;1.95;0.50;;;;;;;;;;5035462;28;20025;-66
2022/02/14 10:52:21;;;;;;;1.75;0.30;;;;;;;;;;5021649;28;20391;-66
2022/02/14 10:54:46;;;;;;;1.65;0.30;;;;;;;;;;5030483;28;20049;-66
2022/02/14 10:57:26;;;;;;;2.80;0.40;;;;;;;;;;5031309;28;20031;-66
2022/02/14 11:00:10;;;;;;;0.60;0.30;;;;;;;;;;5032015;28;20576;-66
2022/02/14 11:02:36;;;;;;;0.70;0.30;;;;;;;;;;5027655;28;20033;-67
2022/02/14 11:05:01;;;;;;;0.85;0.40;;;;;;;;;;5044429;28;20044;-66
2022/02/14 11:07:27;;;;;;;1.23;0.40;;;;;;;;;;5033632;28;20033;-66
2022/02/14 11:09:55;;;;;;;1.77;0.50;;;;;;;;;;5031922;28;20072;-66
2022/02/14 11:12:21;;;;;;;0.68;0.30;;;;;;;;;;5031718;28;20017;-66
2022/02/14 11:14:54;;;;;;;2.90;0.40;;;;;;;;;;5045501;28;20029;-66
2022/02/14 11:17:21;;;;;;;0.80;0.32;;;;;;;;;;5035266;28;20021;-66
2022/02/14 11:19:48;;;;;;;1.05;0.40;;;;;;;;;;5023280;28;20026;-66
2022/02/14 11:22:14;;;;;;;1.85;0.50;;;;;;;;;;5017827;28;20037;-66
2022/02/14 11:24:42;;;;;;;1.02;0.40;;;;;;;;;;5027904;28;20026;-66
2022/02/14 11:27:11;;;;;;;1.38;0.30;;;;;;;;;;5045195;28;20018;-67
2022/02/14 11:29:36;;;;;;;2.33;0.60;;;;;;;;;;5032750;28;20108;-67
2022/02/14 11:32:27;;;;;;;1.25;0.50;;;;;;;;;;5024059;28;20525;-66
2022/02/14 11:34:58;;;;;;;1.27;0.30;;;;;;;;;;5042064;28;20032;-66
2022/02/14 11:37:23;;;;;;;2.15;0.40;;;;;;;;;;5029127;28;20069;-67
2022/02/14 11:39:49;;;;;;;2.75;0.52;;;;;;;;;;5030313;28;20137;-67
2022/02/14 11:42:14;;;;;;;0.82;0.45;;;;;;;;;;5041928;28;20029;-67
2022/02/14 11:44:41;;;;;;;1.05;0.30;;;;;;;;;;5031682;28;20104;-68
2022/02/14 11:47:08;;;;;;;1.52;0.43;;;;;;;;;;5032042;28;20021;-67
2022/02/14 11:49:38;;;;;;;2.80;0.52;;;;;;;;;;5033710;28;20017;-68
2022/02/14 11:52:05;;;;;;;0.95;0.50;;;;;;;;;;5030817;28;20556;-68
2022/02/14 11:54:33;;;;;;;3.60;0.50;;;;;;;;;;5026475;28;20048;-68
2022/02/14 11:57:10;;;;;;;1.42;0.40;;;;;;;;;;5024377;28;20029;-68
2022/02/14 11:59:35;;;;;;;1.40;0.50;;;;;;;;;;5027372;28;20022;-67
2022/02/14 12:02:02;;;;;;;1.02;0.52;;;;;;;;;;5020783;28;20452;-67
2022/02/14 12:04:37;;;;;;;2.42;0.60;;;;;;;;;;5024086;28;20091;-66
2022/02/14 12:07:25;;;;;;;0.80;0.40;;;;;;;;;;5026995;28;20474;-67
2022/02/14 12:09:56;;;;;;;1.95;0.40;;;;;;;;;;5029284;28;20017;-67
2022/02/14 12:12:40;;;;;;;0.80;0.45;;;;;;;;;;5034886;28;20021;-65
2022/02/14 12:15:17;;;;;;;2.88;0.40;;;;;;;;;;5022583;28;20030;-67
2022/02/14 12:20:35;;;;;;;2.72;0.70;;;;;;;;;;5027784;28;20036;-67
2022/02/14 12:23:01;;;;;;;1.00;0.45;;;;;;;;;;5023635;28;20037;-67
2022/02/14 12:25:26;;;;;;;2.05;0.50;;;;;;;;;;5017899;28;20149;-67
2022/02/14 12:27:53;;;;;;;1.27;0.75;;;;;;;;;;5028479;28;20032;-66
2022/02/14 12:30:18;;;;;;;0.77;0.38;;;;;;;;;;5025264;28;20022;-66
2022/02/14 12:32:48;;;;;;;1.83;0.63;;;;;;;;;;5029763;28;20021;-65
2022/02/14 12:35:26;;;;;;;1.77;0.73;;;;;;;;;;5032626;28;20036;-67
2022/02/14 12:37:51;;;;;;;2.53;0.60;;;;;;;;;;5030964;28;20025;-68
2022/02/14 12:40:18;;;;;;;1.13;0.60;;;;;;;;;;5033264;28;20036;-68
2022/02/14 12:42:43;;;;;;;0.85;0.50;;;;;;;;;;5036010;28;20276;-68
2022/02/14 12:45:13;;;;;;;2.15;0.60;;;;;;;;;;5025665;28;20049;-68
2022/02/14 12:47:38;;;;;;;1.88;0.50;;;;;;;;;;5035135;28;20029;-68
2022/02/14 12:50:03;;;;;;;2.70;0.60;;;;;;;;;;5029972;28;20371;-68
2022/02/14 12:52:29;;;;;;;1.85;0.50;;;;;;;;;;5028873;28;20026;-68
2022/02/14 12:54:55;;;;;;;1.88;0.65;;;;;;;;;;5024903;28;20405;-68
2022/02/14 12:57:32;;;;;;;2.65;0.60;;;;;;;;;;5039756;28;20104;-67
2022/02/14 12:59:57;;;;;;;1.35;0.35;;;;;;;;;;5026227;28;20036;-68
2022/02/14 13:02:23;;;;;;;2.20;0.53;;;;;;;;;;5031561;28;20025;-68
2022/02/14 13:04:48;;;;;;;2.75;0.40;;;;;;;;;;5037048;28;20288;-68
2022/02/14 13:07:13;;;;;;;1.63;0.60;;;;;;;;;;5051638;28;20547;-68
2022/02/14 13:09:39;;;;;;;3.20;0.55;;;;;;;;;;5044880;28;20053;-68
2022/02/14 13:12:15;;;;;;;2.37;0.70;;;;;;;;;;5044224;28;20120;-68
2022/02/14 13:14:47;;;;;;;1.08;0.35;;;;;;;;;;5038342;28;20287;-68
2022/02/14 13:17:13;;;;;;;5.15;0.80;;;;;;;;;;5021766;28;20051;-68
2022/02/14 13:19:48;;;;;;;1.45;0.50;;;;;;;;;;5034741;28;20032;-68
2022/02/14 13:22:20;;;;;;;1.67;0.68;;;;;;;;;;5032577;28;20090;-67
2022/02/14 13:24:45;;;;;;;2.05;0.65;;;;;;;;;;5034907;28;20120;-66
2022/02/14 13:27:14;;;;;;;3.20;0.50;;;;;;;;;;5041045;28;20100;-66
2022/02/14 13:29:43;;;;;;;1.60;0.57;;;;;;;;;;5053244;28;20021;-67
2022/02/14 13:32:09;;;;;;;2.38;0.70;;;;;;;;;;5051546;28;20104;-67
2022/02/14 13:34:34;;;;;;;1.52;0.60;;;;;;;;;;5037193;28;20029;-67
2022/02/14 13:37:00;;;;;;;1.30;0.43;;;;;;;;;;5043453;28;20035;-67
2022/02/14 13:39:26;;;;;;;1.42;0.60;;;;;;;;;;5035620;28;20389;-66
2022/02/14 13:41:51;;;;;;;3.88;0.55;;;;;;;;;;5040552;28;20024;-67
2022/02/14 13:44:16;;;;;;;1.48;0.50;;;;;;;;;;5042582;28;20125;-67
2022/02/14 13:46:42;;;;;;;4.43;0.93;;;;;;;;;;5047385;28;20025;-68
2022/02/14 13:49:07;;;;;;;1.90;0.60;;;;;;;;;;5040444;28;20385;-68
2022/02/14 13:51:32;;;;;;;3.78;0.98;;;;;;;;;;5027514;28;20068;-68
2022/02/14 13:53:58;;;;;;;1.60;0.77;;;;;;;;;;5029122;28;20026;-68
2022/02/14 13:56:23;;;;;;;3.42;1.15;;;;;;;;;;5024055;28;20046;-68
2022/02/14 13:58:49;;;;;;;1.88;0.70;;;;;;;;;;5029056;28;20033;-68
2022/02/14 14:01:23;;;;;;;1.42;0.60;;;;;;;;;;5030575;28;20033;-68
2022/02/14 14:03:50;;;;;;;4.40;0.70;;;;;;;;;;5029071;28;20075;-68
2022/02/14 14:06:25;;;;;;;2.20;0.80;;;;;;;;;;5027150;28;20083;-68
2022/02/14 14:08:51;;;;;;;2.33;0.95;;;;;;;;;;5025876;28;20018;-68
2022/02/14 14:11:26;;;;;;;2.33;1.20;;;;;;;;;;5022641;28;20027;-68
2022/02/14 14:13:53;;;;;;;2.75;0.80;;;;;;;;;;5031696;28;20025;-68
2022/02/14 14:16:19;;;;;;;2.83;0.77;;;;;;;;;;5024221;28;20018;-67
2022/02/14 14:18:44;;;;;;;1.63;0.73;;;;;;;;;;5023856;28;20043;-67
2022/02/14 14:21:10;;;;;;;1.65;0.73;;;;;;;;;;5026797;28;20065;-67
2022/02/14 14:23:36;;;;;;;1.65;0.77;;;;;;;;;;5017720;28;20116;-67
2022/02/14 14:26:02;;;;;;;2.70;0.73;;;;;;;;;;5019556;28;20017;-68
2022/02/14 14:28:28;;;;;;;2.45;0.77;;;;;;;;;;5046097;28;20032;-68
2022/02/14 14:30:53;;;;;;;2.65;0.73;;;;;;;;;;5037006;28;20040;-68
2022/02/14 14:33:18;;;;;;;2.33;0.90;;;;;;;;;;5028355;28;20435;-67
2022/02/14 14:35:43;;;;;;;1.95;0.93;;;;;;;;;;5023712;28;20725;-68
2022/02/14 14:38:09;;;;;;;4.00;1.25;;;;;;;;;;5032899;28;20045;-67
2022/02/14 14:40:34;;;;;;;4.38;1.08;;;;;;;;;;5026840;28;20078;-68
2022/02/14 14:42:59;;;;;;;1.85;0.95;;;;;;;;;;5028019;28;20026;-68
2022/02/14 14:45:25;;;;;;;2.95;0.70;;;;;;;;;;5031633;28;20025;-68